Davisville, Texas
Current Conditions -  °F | °C
As of 3:55 AM on Friday 19 Dec 2014 (Local Time) from KDKR Reporting Station
Heavy Rain Heavy Rain  
Wind Chill: 54°   Ceiling: NA
Heat Index: 54°   Visibility: NA
Dew Point: 52°   Wind: 13mph
Humidity: 94%   Direction: 50°NE
Pressure: 30.08"   Gusts: NA
Location:  31.2807°N, 95.8748°W
Report Text: KDKR 190955Z AUTO 05011KT +RA 12/11 A3008 RMK AO2 P0022
Loading
Personal Weather Stations






























Interactive Weather Map New forecast layout! Learn more

10-Day Weather Forecast

Advertisements
Track Severe Weather on mobile